Time;durP1;ratioP1;P1;durP2;ratioP2;P2;SDS_P1;SDS_P2;PMS_P1;PMS_P2;Temp;Humidity;BMP_temperature;BMP_pressure;BME280_temperature;BME280_humidity;BME280_pressure;Samples;Min_cycle;Max_cycle;Signal;HPM_P1;HPM_P2
2021/11/19 00:02:04;;;;;;;38.00;21.07;;;;;;;9.37;92.26;101748.34;5043678;28;20293;-82
2021/11/19 00:04:33;;;;;;;31.67;20.10;;;;;;;9.38;92.99;101750.09;5045337;28;20210;-82
2021/11/19 00:07:01;;;;;;;26.90;19.93;;;;;;;9.38;92.64;101753.63;5042687;28;20222;-82
2021/11/19 00:09:28;;;;;;;29.47;19.97;;;;;;;9.38;92.53;101758.06;5048154;28;20194;-82
2021/11/19 00:11:55;;;;;;;32.87;21.20;;;;;;;9.37;93.17;101749.22;5046212;28;20189;-82
2021/11/19 00:14:23;;;;;;;35.13;20.30;;;;;;;9.38;92.96;101758.94;5040198;28;20198;-83
2021/11/19 00:16:57;;;;;;;37.20;21.00;;;;;;;9.42;92.24;101758.81;5045173;28;20230;-82
2021/11/19 00:19:24;;;;;;;31.37;20.03;;;;;;;9.42;92.29;101762.34;5047083;28;20202;-81
2021/11/19 00:21:52;;;;;;;36.10;19.07;;;;;;;9.44;92.52;101759.63;5047211;28;20212;-81
2021/11/19 00:24:20;;;;;;;32.87;20.33;;;;;;;9.45;92.86;101746.25;5045047;28;20202;-81
2021/11/19 00:26:48;;;;;;;33.87;20.67;;;;;;;9.45;92.75;101746.25;5042184;28;20321;-82
2021/11/19 00:29:16;;;;;;;31.80;18.13;;;;;;;9.46;92.59;101748.00;5046533;28;20252;-82
2021/11/19 00:31:44;;;;;;;35.13;20.33;;;;;;;9.44;92.48;101749.84;5043011;28;20293;-82
2021/11/19 00:34:11;;;;;;;30.07;18.90;;;;;;;9.46;92.75;101752.44;5040767;28;20213;-81
2021/11/19 00:36:38;;;;;;;31.50;18.83;;;;;;;9.50;92.65;101765.53;5044585;28;20226;-82
2021/11/19 00:39:10;;;;;;;35.03;20.10;;;;;;;9.48;93.21;101762.09;5034788;28;20226;-82
2021/11/19 00:41:38;;;;;;;31.57;19.60;;;;;;;9.50;92.44;101754.03;5044616;28;20202;-82
2021/11/19 00:44:06;;;;;;;31.27;19.50;;;;;;;9.50;92.79;101754.03;5040657;28;20220;-82
2021/11/19 00:46:33;;;;;;;30.13;19.07;;;;;;;9.52;92.67;101757.50;5043442;28;20227;-81
2021/11/19 00:49:00;;;;;;;32.60;20.27;;;;;;;9.52;92.38;101757.50;5043752;28;20209;-82
2021/11/19 00:51:30;;;;;;;26.13;17.53;;;;;;;9.53;92.26;101757.44;5047122;28;20308;-82
2021/11/19 00:53:59;;;;;;;27.77;18.97;;;;;;;9.53;92.83;101764.53;5044840;28;20690;-82
2021/11/19 00:56:32;;;;;;;30.23;18.80;;;;;;;9.53;92.61;101754.78;5047751;28;20249;-82
2021/11/19 00:59:00;;;;;;;28.17;17.70;;;;;;;9.52;92.99;101761.00;5044174;28;20225;-83
2021/11/19 01:01:29;;;;;;;24.73;16.93;;;;;;;9.53;92.72;101759.22;5049086;28;20297;-83
2021/11/19 01:03:56;;;;;;;27.03;17.97;;;;;;;9.54;92.86;101764.47;5046743;28;20707;-81
2021/11/19 01:06:22;;;;;;;25.80;18.03;;;;;;;9.52;92.92;101769.00;5044750;28;20230;-82
2021/11/19 01:08:50;;;;;;;24.07;16.37;;;;;;;9.52;92.58;101761.00;5043306;28;20203;-81
2021/11/19 01:11:18;;;;;;;26.83;16.53;;;;;;;9.54;92.65;101777.78;5052346;28;20293;-81
2021/11/19 01:13:49;;;;;;;30.57;17.90;;;;;;;9.56;92.70;101775.94;5044277;28;20198;-81
2021/11/19 01:16:19;;;;;;;24.77;16.50;;;;;;;9.56;93.26;101775.94;5041634;28;20221;-81
2021/11/19 01:18:48;;;;;;;20.40;15.20;;;;;;;9.60;92.92;101766.03;5042726;28;20305;-81
2021/11/19 01:21:17;;;;;;;23.27;17.07;;;;;;;9.57;92.48;101777.66;5043831;28;20226;-80
2021/11/19 01:23:45;;;;;;;22.87;16.63;;;;;;;9.56;93.02;101783.03;5044264;28;20212;-82
2021/11/19 01:26:14;;;;;;;21.77;16.40;;;;;;;9.59;92.79;101770.47;5044426;28;20737;-81
2021/11/19 01:28:42;;;;;;;24.73;16.43;;;;;;;9.61;92.89;101783.72;5056099;28;20213;-80
2021/11/19 01:31:14;;;;;;;23.87;16.17;;;;;;;9.62;92.81;101791.63;5048156;28;20208;-80
2021/11/19 01:33:42;;;;;;;23.30;15.27;;;;;;;9.62;92.89;101786.31;5045212;28;20672;-81
2021/11/19 01:36:09;;;;;;;27.57;18.50;;;;;;;9.62;92.81;101791.63;5042825;28;20214;-81
2021/11/19 01:38:36;;;;;;;25.07;17.40;;;;;;;9.63;92.52;101801.34;5047556;28;20225;-81
2021/11/19 01:41:07;;;;;;;25.87;17.57;;;;;;;9.64;92.69;101797.78;5050342;28;20245;-81
2021/11/19 01:43:36;;;;;;;21.87;15.13;;;;;;;9.64;92.40;101795.09;5044121;28;20198;-81
2021/11/19 01:46:07;;;;;;;23.20;16.50;;;;;;;9.66;92.16;101793.25;5049891;28;20210;-81
2021/11/19 01:48:40;;;;;;;19.07;15.17;;;;;;;9.66;92.16;101793.25;5042575;28;20289;-81
2021/11/19 01:51:13;;;;;;;23.83;16.63;;;;;;;9.66;92.32;101785.28;5040498;28;20210;-82
2021/11/19 01:53:44;;;;;;;23.47;16.33;;;;;;;9.67;92.56;101789.63;5040441;28;20208;-82
2021/11/19 01:56:13;;;;;;;21.27;16.43;;;;;;;9.68;92.44;101796.69;5039439;28;20206;-83
2021/11/19 01:58:43;;;;;;;22.70;15.20;;;;;;;9.69;92.35;101787.78;5047951;28;20238;-83
2021/11/19 02:01:14;;;;;;;23.07;15.93;;;;;;;9.70;92.34;101793.97;5038611;28;20210;-81
2021/11/19 02:03:45;;;;;;;22.60;16.00;;;;;;;9.68;92.41;101796.69;5037954;28;20210;-82
2021/11/19 02:06:18;;;;;;;25.13;16.63;;;;;;;9.70;92.02;101788.66;5041071;28;20206;-82
2021/11/19 02:08:46;;;;;;;27.67;18.40;;;;;;;9.70;91.92;101804.59;5037944;28;20554;-81
2021/11/19 02:11:23;;;;;;;26.13;16.63;;;;;;;9.70;92.11;101804.59;5040009;28;20667;-81
2021/11/19 02:13:57;;;;;;;27.83;17.27;;;;;;;9.71;92.43;101801.03;5039311;28;20202;-82
2021/11/19 02:16:26;;;;;;;25.07;18.00;;;;;;;9.71;92.38;101798.34;5049209;28;20307;-83
2021/11/19 02:19:01;;;;;;;25.97;18.97;;;;;;;9.70;92.64;101792.16;5040450;28;20620;-82
2021/11/19 02:21:32;;;;;;;27.33;18.40;;;;;;;9.69;92.82;101790.44;5036183;28;20296;-82
2021/11/19 02:24:02;;;;;;;28.37;17.90;;;;;;;9.69;93.06;101787.78;5043647;28;20210;-82
2021/11/19 02:26:32;;;;;;;29.80;19.60;;;;;;;9.68;93.30;101780.72;5035899;28;20624;-82
2021/11/19 02:28:59;;;;;;;27.00;17.40;;;;;;;9.70;92.94;101778.88;5035440;28;20564;-82
2021/11/19 02:31:28;;;;;;;27.23;18.93;;;;;;;9.70;92.62;101784.19;5036619;28;20206;-81
2021/11/19 02:33:59;;;;;;;26.03;17.27;;;;;;;9.71;93.00;101759.31;5035945;28;20213;-82
2021/11/19 02:36:34;;;;;;;28.97;18.53;;;;;;;9.71;92.79;101769.97;5038265;28;20222;-82
2021/11/19 02:39:07;;;;;;;27.00;17.97;;;;;;;9.69;93.19;101776.28;5039383;28;20213;-82
2021/11/19 02:41:36;;;;;;;23.33;16.30;;;;;;;9.68;92.99;101770.09;5038745;28;20579;-81
2021/11/19 02:44:05;;;;;;;25.03;15.73;;;;;;;9.65;93.18;101775.56;5035580;28;20206;-82
2021/11/19 02:46:34;;;;;;;21.17;15.00;;;;;;;9.66;93.11;101779.94;5035721;28;20240;-81
2021/11/19 02:49:02;;;;;;;22.23;16.03;;;;;;;9.66;93.21;101771.97;5036471;28;20205;-81
2021/11/19 02:51:30;;;;;;;24.00;15.87;;;;;;;9.64;92.92;101779.16;5039592;28;20214;-80
2021/11/19 02:53:58;;;;;;;19.23;14.50;;;;;;;9.63;93.31;101769.44;5038872;28;20202;-81
2021/11/19 02:56:26;;;;;;;20.57;14.80;;;;;;;9.61;93.41;101765.97;5040211;28;20237;-81
2021/11/19 02:58:56;;;;;;;22.77;15.87;;;;;;;9.60;93.55;101764.25;5036439;28;20232;-81
2021/11/19 03:01:25;;;;;;;26.33;15.23;;;;;;;9.59;93.56;101754.53;5039530;28;20206;-81
2021/11/19 03:04:08;;;;;;;18.27;13.63;;;;;;;9.61;93.50;101759.78;5037145;28;20221;-81
2021/11/19 03:06:39;;;;;;;17.23;14.17;;;;;;;9.60;93.93;101766.03;5046490;28;20221;-81
2021/11/19 03:09:06;;;;;;;17.93;13.50;;;;;;;9.60;94.17;101772.22;5040512;28;20271;-81
2021/11/19 03:11:33;;;;;;;19.33;14.10;;;;;;;9.61;93.69;101765.09;5037167;28;20212;-82
2021/11/19 03:14:00;;;;;;;19.27;14.43;;;;;;;9.60;93.75;101760.72;5036865;28;20202;-82
2021/11/19 03:16:27;;;;;;;19.93;13.73;;;;;;;9.62;94.05;101759.72;5036821;28;20783;-81
2021/11/19 03:18:53;;;;;;;16.97;14.13;;;;;;;9.64;94.13;101757.00;5036511;28;20218;-82
2021/11/19 03:21:23;;;;;;;19.43;12.93;;;;;;;9.66;93.67;101753.34;5042185;28;20652;-81
2021/11/19 03:23:51;;;;;;;17.03;12.50;;;;;;;9.68;93.55;101759.44;5037043;28;20214;-82
2021/11/19 03:26:18;;;;;;;17.93;13.13;;;;;;;9.68;93.66;101759.44;5039047;28;20218;-82
2021/11/19 03:28:44;;;;;;;16.90;13.53;;;;;;;9.69;93.95;101760.31;5037107;28;20206;-82
2021/11/19 03:31:14;;;;;;;18.73;13.23;;;;;;;9.68;94.26;101763.91;5039496;28;20218;-83
2021/11/19 03:33:43;;;;;;;16.93;14.00;;;;;;;9.69;94.23;101761.19;5045936;28;20545;-82
2021/11/19 03:36:12;;;;;;;16.80;13.60;;;;;;;9.71;94.00;101764.63;5044113;28;20197;-82
2021/11/19 03:38:43;;;;;;;17.90;13.17;;;;;;;9.74;94.13;101764.53;5042386;28;20566;-82
2021/11/19 03:41:11;;;;;;;20.23;14.67;;;;;;;9.74;93.70;101761.84;5043420;28;20656;-82
2021/11/19 03:43:41;;;;;;;21.00;14.63;;;;;;;9.79;94.44;101760.81;5044658;28;20545;-83
2021/11/19 03:46:15;;;;;;;18.73;15.33;;;;;;;9.80;93.99;101771.38;5046683;28;20213;-82
2021/11/19 03:48:42;;;;;;;20.60;15.30;;;;;;;9.80;93.90;101768.72;5040485;28;20213;-82
2021/11/19 03:51:12;;;;;;;20.23;15.40;;;;;;;9.82;94.30;101760.69;5044859;28;20209;-83
2021/11/19 03:53:41;;;;;;;16.93;14.03;;;;;;;9.82;93.86;101764.22;5040729;28;21052;-82
2021/11/19 03:56:09;;;;;;;19.40;14.30;;;;;;;9.82;94.04;101764.22;5040654;28;20210;-82
2021/11/19 03:58:40;;;;;;;21.53;15.73;;;;;;;9.86;94.28;101762.25;5040892;28;20562;-83
2021/11/19 04:01:11;;;;;;;20.33;14.40;;;;;;;9.85;93.88;101768.53;5038613;28;20664;-82
2021/11/19 04:03:39;;;;;;;21.57;15.10;;;;;;;9.86;94.32;101763.13;5048940;28;20211;-82
2021/11/19 04:06:05;;;;;;;18.57;13.97;;;;;;;9.88;94.20;101771.03;5040636;28;20208;-83
2021/11/19 04:08:33;;;;;;;19.13;13.77;;;;;;;9.88;94.37;101765.72;5043769;28;20206;-83
2021/11/19 04:11:01;;;;;;;17.93;14.03;;;;;;;9.90;94.19;101763.88;5038003;28;20244;-83
2021/11/19 04:13:28;;;;;;;15.80;13.33;;;;;;;9.91;94.03;101770.91;5038626;28;20775;-82
2021/11/19 04:16:01;;;;;;;17.73;13.83;;;;;;;9.91;94.22;101770.91;5038107;28;20206;-83
2021/11/19 04:18:30;;;;;;;17.10;12.57;;;;;;;9.93;94.16;101782.38;5037817;28;20775;-82
2021/11/19 04:20:57;;;;;;;17.13;13.07;;;;;;;9.94;94.01;101770.78;5038292;28;20206;-83
2021/11/19 04:23:25;;;;;;;17.07;13.30;;;;;;;9.94;94.14;101779.63;5037135;28;20641;-81
2021/11/19 04:25:53;;;;;;;18.80;12.83;;;;;;;9.95;94.05;101775.19;5038776;28;20212;-83
2021/11/19 04:28:21;;;;;;;18.33;13.70;;;;;;;9.96;94.12;101787.56;5035929;28;20258;-82
2021/11/19 04:30:51;;;;;;;17.77;13.67;;;;;;;9.98;94.21;101780.38;5044615;28;20221;-82
2021/11/19 04:33:18;;;;;;;15.60;12.63;;;;;;;9.99;94.07;101784.78;5039109;28;20214;-83
2021/11/19 04:35:46;;;;;;;16.80;12.40;;;;;;;9.99;94.12;101785.63;5040873;28;20656;-83
2021/11/19 04:38:13;;;;;;;16.70;12.67;;;;;;;10.00;94.16;101786.50;5039827;28;20218;-82
2021/11/19 04:40:41;;;;;;;16.10;12.30;;;;;;;10.02;93.81;101789.97;5040692;28;20206;-82
2021/11/19 04:43:08;;;;;;;14.80;12.03;;;;;;;10.02;93.95;101789.97;5037433;28;20210;-82
2021/11/19 04:45:36;;;;;;;12.77;10.70;;;;;;;10.00;94.20;101794.50;5037549;28;20321;-83
2021/11/19 04:48:03;;;;;;;15.73;12.33;;;;;;;10.00;93.94;101781.19;5035384;28;20236;-82
2021/11/19 04:50:36;;;;;;;15.97;11.83;;;;;;;9.99;94.43;101787.44;5040003;28;20820;-83
2021/11/19 04:53:03;;;;;;;16.47;12.03;;;;;;;10.01;94.09;101791.78;5042503;28;20289;-82
2021/11/19 04:55:32;;;;;;;14.77;12.43;;;;;;;10.01;94.12;101788.25;5037040;28;20213;-83
2021/11/19 04:57:58;;;;;;;16.60;12.53;;;;;;;10.01;94.37;101794.44;5043622;28;20231;-82
2021/11/19 05:00:28;;;;;;;15.37;11.33;;;;;;;10.02;93.98;101785.50;5037972;28;20245;-83
2021/11/19 05:02:56;;;;;;;14.43;11.00;;;;;;;10.02;94.30;101801.47;5039215;28;20241;-83
2021/11/19 05:05:25;;;;;;;15.50;11.97;;;;;;;10.02;94.17;101787.31;5038732;28;20206;-83
2021/11/19 05:07:52;;;;;;;15.40;12.50;;;;;;;10.02;94.33;101790.84;5043695;28;20222;-83
2021/11/19 05:10:19;;;;;;;14.57;11.70;;;;;;;10.03;93.95;101791.72;5046423;28;20210;-82
2021/11/19 05:12:49;;;;;;;21.93;15.20;;;;;;;10.02;93.98;101797.97;5046116;28;20202;-82
2021/11/19 05:15:18;;;;;;;19.03;13.87;;;;;;;10.02;94.55;101792.63;5043924;28;20203;-82
2021/11/19 05:17:44;;;;;;;18.47;13.93;;;;;;;10.03;94.34;101792.53;5040598;28;20313;-83
2021/11/19 05:20:15;;;;;;;19.37;14.00;;;;;;;10.02;94.09;101789.97;5041596;28;20305;-82
2021/11/19 05:22:43;;;;;;;19.10;14.87;;;;;;;10.02;94.52;101787.31;5037695;28;20705;-82
2021/11/19 05:25:12;;;;;;;19.70;14.17;;;;;;;10.03;94.97;101794.38;5039746;28;20213;-82
2021/11/19 05:27:39;;;;;;;19.10;13.67;;;;;;;10.02;94.82;101790.84;5035212;28;20224;-82
2021/11/19 05:30:08;;;;;;;18.83;13.43;;;;;;;10.02;94.60;101789.97;5039607;28;20205;-81
2021/11/19 05:32:35;;;;;;;19.97;13.80;;;;;;;10.01;95.16;101790.91;5037489;28;20198;-82
2021/11/19 05:35:02;;;;;;;22.97;15.03;;;;;;;10.01;94.78;101794.44;5038263;28;20206;-82
2021/11/19 05:37:30;;;;;;;19.87;14.23;;;;;;;10.01;94.90;101790.91;5036131;28;20321;-82
2021/11/19 05:39:56;;;;;;;21.80;14.50;;;;;;;10.01;95.16;101796.22;5038773;28;20232;-82
2021/11/19 05:42:23;;;;;;;24.60;15.37;;;;;;;9.99;95.22;101796.28;5040465;28;20807;-82
2021/11/19 05:44:50;;;;;;;21.73;14.83;;;;;;;10.02;95.33;101795.28;5041169;28;20211;-82
2021/11/19 05:47:16;;;;;;;22.67;16.00;;;;;;;10.00;95.32;101794.50;5041231;28;20222;-81
2021/11/19 05:49:43;;;;;;;22.03;15.10;;;;;;;10.02;95.68;101789.97;5044185;28;20205;-82
2021/11/19 05:52:11;;;;;;;23.27;15.60;;;;;;;10.03;95.33;101789.03;5044930;28;20208;-82
2021/11/19 05:54:41;;;;;;;22.97;15.80;;;;;;;10.03;95.38;101803.19;5043764;28;20216;-82
2021/11/19 05:57:10;;;;;;;24.30;15.73;;;;;;;10.04;95.86;101798.72;5041717;28;20313;-82
2021/11/19 05:59:37;;;;;;;26.23;16.17;;;;;;;10.04;95.71;101796.06;5045374;28;20225;-82
2021/11/19 06:02:05;;;;;;;23.97;16.20;;;;;;;10.03;95.83;101802.34;5039290;28;20209;-82
2021/11/19 06:04:31;;;;;;;25.80;16.20;;;;;;;10.04;95.98;101804.91;5039487;28;20270;-82
2021/11/19 06:06:58;;;;;;;22.17;15.67;;;;;;;10.05;95.79;101805.78;5044615;28;20232;-81
2021/11/19 06:09:29;;;;;;;26.30;17.30;;;;;;;10.03;96.36;101808.50;5042760;28;20202;-81
2021/11/19 06:12:01;;;;;;;26.70;17.23;;;;;;;10.02;96.24;101813.94;5042793;28;20689;-82
2021/11/19 06:14:35;;;;;;;24.20;15.77;;;;;;;10.04;96.04;101814.69;5037801;28;20202;-82
2021/11/19 06:17:06;;;;;;;21.93;15.00;;;;;;;10.07;95.95;101818.09;5038069;28;20229;-82
2021/11/19 06:19:37;;;;;;;24.87;15.00;;;;;;;10.07;96.16;101819.91;5032519;28;20228;-82
2021/11/19 06:22:09;;;;;;;25.13;16.57;;;;;;;10.07;96.03;101819.91;5037648;28;20212;-84
2021/11/19 06:24:38;;;;;;;22.53;14.53;;;;;;;10.10;96.05;101817.09;5035335;28;20542;-84
2021/11/19 06:27:07;;;;;;;26.40;14.77;;;;;;;10.11;96.24;101824.16;5025969;28;20707;-83
2021/11/19 06:29:33;;;;;;;27.43;15.00;;;;;;;10.10;96.44;101825.97;5034668;28;20210;-83
2021/11/19 06:32:02;;;;;;;22.73;13.53;;;;;;;10.13;96.24;101819.66;5033832;28;20220;-82
2021/11/19 06:34:28;;;;;;;22.97;15.10;;;;;;;10.12;96.36;101823.22;5039205;28;20229;-82
2021/11/19 06:36:55;;;;;;;18.13;13.80;;;;;;;10.13;96.44;101830.28;5038505;28;20217;-82
2021/11/19 06:39:22;;;;;;;21.20;14.10;;;;;;;10.14;96.55;101828.50;5043037;28;20232;-83
2021/11/19 06:41:49;;;;;;;21.00;14.47;;;;;;;10.15;96.47;101832.88;5032630;28;20214;-82
2021/11/19 06:44:17;;;;;;;19.63;14.13;;;;;;;10.15;96.38;101838.22;5033309;28;20679;-83
2021/11/19 06:46:45;;;;;;;24.47;15.80;;;;;;;10.14;96.53;101826.69;5033296;28;20230;-83
2021/11/19 06:49:12;;;;;;;28.77;13.83;;;;;;;10.15;96.88;101833.75;5033967;28;20568;-81
2021/11/19 06:51:39;;;;;;;21.83;14.13;;;;;;;10.14;96.78;101831.16;5033560;28;20715;-81
2021/11/19 06:54:06;;;;;;;21.93;14.73;;;;;;;10.13;96.69;101835.63;5034104;28;20209;-81
2021/11/19 06:56:34;;;;;;;19.67;13.93;;;;;;;10.14;96.94;101829.38;5034517;28;20230;-82
2021/11/19 06:59:01;;;;;;;20.17;13.47;;;;;;;10.15;96.94;101835.56;5034943;28;20215;-82
2021/11/19 07:01:29;;;;;;;19.83;14.23;;;;;;;10.15;97.11;101828.44;5034369;28;20221;-82
2021/11/19 07:03:55;;;;;;;21.63;14.33;;;;;;;10.15;97.29;101838.22;5033307;28;20653;-81
2021/11/19 07:06:22;;;;;;;19.13;13.97;;;;;;;10.16;96.83;101831.97;5038904;28;20305;-82
2021/11/19 07:08:48;;;;;;;19.07;13.43;;;;;;;10.15;97.05;101833.75;5036786;28;20244;-82
2021/11/19 07:11:20;;;;;;;17.93;13.10;;;;;;;10.14;96.82;101832.03;5037449;28;20206;-82
2021/11/19 07:13:48;;;;;;;20.90;14.10;;;;;;;10.15;96.95;101832.88;5036508;28;20213;-82
2021/11/19 07:16:15;;;;;;;17.30;13.63;;;;;;;10.15;97.19;101843.53;5037408;28;20275;-83
2021/11/19 07:18:44;;;;;;;19.53;14.43;;;;;;;10.15;97.19;101838.22;5036740;28;20217;-82
2021/11/19 07:21:11;;;;;;;18.50;13.87;;;;;;;10.14;97.49;101840.00;5036285;28;20704;-81
2021/11/19 07:23:38;;;;;;;25.33;18.73;;;;;;;10.17;97.13;101834.56;5036974;28;20214;-82
2021/11/19 07:26:05;;;;;;;18.13;14.67;;;;;;;10.16;97.27;101834.63;5037379;28;20206;-82
2021/11/19 07:28:32;;;;;;;16.00;12.37;;;;;;;10.14;97.15;101842.66;5036409;28;20241;-82
2021/11/19 07:31:01;;;;;;;15.53;11.87;;;;;;;10.16;97.18;101842.63;5037079;28;20646;-81
2021/11/19 07:33:29;;;;;;;15.07;11.73;;;;;;;10.16;97.41;101840.81;5037289;28;20210;-81
2021/11/19 07:35:59;;;;;;;12.07;10.40;;;;;;;10.17;97.57;101847.88;5037168;28;20204;-82
2021/11/19 07:38:27;;;;;;;12.60;11.23;;;;;;;10.17;97.63;101850.53;5037867;28;20203;-83
2021/11/19 07:40:54;;;;;;;15.83;11.13;;;;;;;10.18;97.48;101848.75;5038294;28;20578;-82
2021/11/19 07:43:23;;;;;;;12.23;10.40;;;;;;;10.19;97.29;101840.72;5037381;28;20215;-82
2021/11/19 07:45:50;;;;;;;13.53;9.70;;;;;;;10.19;97.46;101839.84;5038352;28;20206;-82
2021/11/19 07:48:20;;;;;;;11.03;9.43;;;;;;;10.21;97.59;101848.66;5037852;28;20235;-81
2021/11/19 07:50:49;;;;;;;11.07;9.27;;;;;;;10.21;97.50;101844.16;5039114;28;20289;-82
2021/11/19 07:53:18;;;;;;;11.67;9.40;;;;;;;10.22;97.32;101859.19;5037773;28;20206;-82
2021/11/19 07:55:45;;;;;;;13.63;9.07;;;;;;;10.24;97.40;101853.81;5037115;28;20779;-82
2021/11/19 07:58:12;;;;;;;8.87;7.97;;;;;;;10.24;97.57;101849.34;5036706;28;20237;-82
2021/11/19 08:00:43;;;;;;;10.70;8.43;;;;;;;10.24;97.76;101859.13;5037217;28;20240;-81
2021/11/19 08:03:10;;;;;;;8.83;7.90;;;;;;;10.25;97.56;101855.53;5036575;28;20206;-82
2021/11/19 08:05:37;;;;;;;9.20;7.07;;;;;;;10.26;97.63;101854.63;5036759;28;20215;-82
2021/11/19 08:08:03;;;;;;;8.93;7.00;;;;;;;10.28;97.62;101855.41;5036937;28;20230;-82
2021/11/19 08:10:32;;;;;;;7.23;6.53;;;;;;;10.28;97.70;101855.41;5037468;28;20216;-82
2021/11/19 08:12:58;;;;;;;7.97;7.17;;;;;;;10.27;97.71;101849.22;5037473;28;20649;-81
2021/11/19 08:15:28;;;;;;;8.87;7.50;;;;;;;10.29;97.67;101859.81;5037512;28;20686;-83
2021/11/19 08:17:56;;;;;;;8.20;7.37;;;;;;;10.28;97.54;101856.28;5037160;28;20261;-82
2021/11/19 08:20:36;;;;;;;8.67;7.43;;;;;;;10.28;97.44;101860.75;5037122;28;20236;-82
2021/11/19 08:23:04;;;;;;;9.70;8.67;;;;;;;10.29;97.60;101859.81;5031726;28;20257;-82
2021/11/19 08:25:32;;;;;;;8.43;7.47;;;;;;;10.30;97.23;101854.44;5036556;28;20229;-82
2021/11/19 08:28:00;;;;;;;8.60;7.63;;;;;;;10.32;97.58;101849.91;5036311;28;20226;-82
2021/11/19 08:30:33;;;;;;;8.63;7.23;;;;;;;10.36;97.23;101853.31;5048488;28;20210;-81
2021/11/19 08:33:00;;;;;;;8.83;7.50;;;;;;;10.36;97.50;101851.50;5035164;28;20596;-81
2021/11/19 08:35:27;;;;;;;8.83;7.30;;;;;;;10.38;97.60;101857.63;5033443;28;20222;-82
2021/11/19 08:37:55;;;;;;;8.60;7.67;;;;;;;10.40;97.54;101855.75;5026947;28;20771;-82
2021/11/19 08:40:24;;;;;;;9.13;8.07;;;;;;;10.41;97.31;101856.63;5035300;28;20238;-81
2021/11/19 08:42:53;;;;;;;10.97;9.20;;;;;;;10.43;97.37;101855.63;5036475;28;20214;-83
2021/11/19 08:45:22;;;;;;;11.00;9.77;;;;;;;10.45;97.39;101866.22;5035735;28;20284;-82
2021/11/19 08:47:52;;;;;;;9.70;8.70;;;;;;;10.43;97.20;101860.94;5035544;28;20234;-82
2021/11/19 08:50:21;;;;;;;10.90;9.10;;;;;;;10.48;97.30;101862.56;5035712;28;20216;-82
2021/11/19 08:52:48;;;;;;;10.87;9.50;;;;;;;10.48;97.47;101866.09;5035706;28;20221;-82
2021/11/19 08:55:16;;;;;;;10.73;9.20;;;;;;;10.51;97.27;101867.75;5036230;28;20294;-82
2021/11/19 08:57:44;;;;;;;10.70;9.60;;;;;;;10.49;96.97;101862.50;5036113;28;20261;-82
2021/11/19 09:00:17;;;;;;;10.77;9.27;;;;;;;10.53;97.00;101860.56;5035103;28;20803;-82
2021/11/19 09:02:43;;;;;;;10.07;9.03;;;;;;;10.56;96.92;101863.09;5035800;28;20207;-83
2021/11/19 09:05:10;;;;;;;11.67;9.77;;;;;;;10.54;96.97;101873.81;5034934;28;20212;-83
2021/11/19 09:07:38;;;;;;;11.20;9.93;;;;;;;10.56;96.88;101873.75;5036027;28;20230;-81
2021/11/19 09:10:09;;;;;;;14.77;10.50;;;;;;;10.57;96.60;101862.16;5035026;28;20213;-83
2021/11/19 09:12:36;;;;;;;12.43;10.17;;;;;;;10.58;96.58;101872.72;5035292;28;20294;-81
2021/11/19 09:15:05;;;;;;;13.50;12.07;;;;;;;10.57;96.35;101862.16;5035777;28;20210;-82
2021/11/19 09:17:50;;;;;;;14.73;10.83;;;;;;;10.61;96.29;101864.59;5034589;28;20244;-81
2021/11/19 09:20:21;;;;;;;12.73;11.40;;;;;;;10.64;96.22;101866.28;5035049;28;20222;-82
2021/11/19 09:22:52;;;;;;;17.47;12.00;;;;;;;10.64;96.00;101867.13;5027569;28;20199;-82
2021/11/19 09:25:22;;;;;;;16.03;12.97;;;;;;;10.64;95.85;101868.94;5034360;28;20202;-82
2021/11/19 09:27:49;;;;;;;16.43;13.07;;;;;;;10.68;96.06;101874.06;5034125;28;20870;-82
2021/11/19 09:30:18;;;;;;;16.97;13.20;;;;;;;10.66;95.80;101872.41;5034452;28;20211;-83
2021/11/19 09:32:48;;;;;;;13.90;12.03;;;;;;;10.69;95.70;101875.81;5037262;28;20217;-80
2021/11/19 09:35:20;;;;;;;15.57;11.47;;;;;;;10.72;95.85;101878.34;5039616;28;20210;-80
2021/11/19 09:37:48;;;;;;;15.70;12.70;;;;;;;10.73;95.61;101872.06;5038879;28;20243;-80
2021/11/19 09:40:15;;;;;;;15.80;12.10;;;;;;;10.78;95.57;101874.50;5039197;28;20242;-80
2021/11/19 09:42:57;;;;;;;15.27;12.13;;;;;;;10.74;95.19;101878.28;5038084;28;20221;-82
2021/11/19 09:45:44;;;;;;;13.07;11.07;;;;;;;10.75;94.82;101871.97;5035753;28;20214;-81
2021/11/19 09:48:39;;;;;;;13.43;10.43;;;;;;;10.81;95.16;101877.03;5039150;28;20626;-80
2021/11/19 09:51:34;;;;;;;13.40;11.23;;;;;;;10.83;94.81;101871.66;5041367;28;20207;-82
2021/11/19 09:54:32;;;;;;;13.63;11.97;;;;;;;10.86;94.66;101872.38;5037578;28;20587;-80
2021/11/19 09:57:30;;;;;;;16.77;11.63;;;;;;;10.89;94.79;101882.91;5024814;28;20312;-81
2021/11/19 10:00:13;;;;;;;17.00;11.53;;;;;;;10.92;94.68;101880.09;5036917;28;20214;-81
2021/11/19 10:02:56;;;;;;;14.00;11.67;;;;;;;10.94;94.64;101877.34;5037414;28;20295;-81
2021/11/19 10:05:35;;;;;;;15.03;12.20;;;;;;;10.93;94.36;101876.47;5034453;28;20212;-82
2021/11/19 10:08:35;;;;;;;15.93;11.40;;;;;;;10.95;94.16;101879.94;5035433;28;20237;-80
2021/11/19 10:11:10;;;;;;;13.57;11.27;;;;;;;10.99;93.97;101870.88;5024282;28;20211;-80
2021/11/19 10:14:05;;;;;;;18.93;13.93;;;;;;;11.04;93.85;101876.00;5035084;28;20209;-81
2021/11/19 10:16:45;;;;;;;14.73;13.07;;;;;;;11.05;93.85;101875.94;5005572;28;20604;-80
2021/11/19 10:19:20;;;;;;;16.17;13.50;;;;;;;11.09;93.59;101872.22;5035281;28;20577;-81
2021/11/19 10:21:55;;;;;;;17.77;15.90;;;;;;;11.11;93.39;101861.44;5035258;28;20221;-81
2021/11/19 10:24:31;;;;;;;20.47;18.00;;;;;;;11.17;93.37;101868.31;5035648;28;20269;-82
2021/11/19 10:26:58;;;;;;;17.43;14.83;;;;;;;11.21;93.30;101861.91;5034106;28;20236;-80
2021/11/19 10:29:27;;;;;;;16.90;14.90;;;;;;;11.25;92.86;101860.81;5034080;28;20202;-80
2021/11/19 10:31:59;;;;;;;20.30;16.53;;;;;;;11.28;92.83;101863.34;5034939;28;20219;-81
2021/11/19 10:34:33;;;;;;;16.63;13.47;;;;;;;11.33;92.67;101850.63;5035257;28;20529;-81
2021/11/19 10:37:26;;;;;;;17.93;13.97;;;;;;;11.34;92.40;101855.91;5035036;28;20226;-81
2021/11/19 10:40:15;;;;;;;15.97;13.73;;;;;;;11.40;92.34;101850.28;5034003;28;20209;-81
2021/11/19 10:43:20;;;;;;;17.37;14.10;;;;;;;11.44;91.71;101849.22;5032706;28;20239;-80
2021/11/19 10:46:24;;;;;;;16.83;13.77;;;;;;;11.47;91.66;101846.38;5033372;28;20209;-80
2021/11/19 10:49:39;;;;;;;14.87;12.13;;;;;;;11.50;91.18;101848.03;5025932;28;20220;-82
2021/11/19 10:52:41;;;;;;;15.23;13.23;;;;;;;11.54;90.99;101846.94;5037974;28;20214;-81
2021/11/19 10:55:44;;;;;;;15.50;13.03;;;;;;;11.61;91.10;101853.72;5036060;28;20715;-80
2021/11/19 10:58:51;;;;;;;17.73;15.20;;;;;;;11.65;90.91;101849.09;5033980;28;20274;-81
2021/11/19 11:01:26;;;;;;;18.53;14.27;;;;;;;11.65;90.63;101847.28;5033544;28;20318;-82
2021/11/19 11:04:02;;;;;;;15.27;13.53;;;;;;;11.66;90.41;101848.16;5033716;28;20214;-82
2021/11/19 11:06:37;;;;;;;24.10;19.63;;;;;;;11.67;90.09;101841.88;5034174;28;20247;-79
2021/11/19 11:09:29;;;;;;;30.97;25.70;;;;;;;11.69;90.02;101840.00;5034227;28;20209;-81
2021/11/19 11:11:59;;;;;;;18.17;16.07;;;;;;;11.71;89.60;101844.31;5033444;28;20214;-82
2021/11/19 11:14:31;;;;;;;16.13;13.50;;;;;;;11.71;89.26;101847.00;5033070;28;20213;-81
2021/11/19 11:17:01;;;;;;;25.37;21.83;;;;;;;11.74;89.30;101846.84;5033135;28;20621;-82
2021/11/19 11:19:31;;;;;;;21.23;17.87;;;;;;;11.77;89.26;101841.41;5046168;28;20583;-82
2021/11/19 11:22:04;;;;;;;20.67;16.47;;;;;;;11.80;89.00;101854.59;5033882;28;20673;-82
2021/11/19 11:24:35;;;;;;;18.60;14.43;;;;;;;11.80;88.95;101849.25;5034011;28;20206;-81
2021/11/19 11:27:18;;;;;;;17.13;15.33;;;;;;;11.78;88.51;101851.13;5033940;28;20651;-82
2021/11/19 11:29:56;;;;;;;18.47;15.47;;;;;;;11.77;88.49;101841.41;5034542;28;20209;-82
2021/11/19 11:32:50;;;;;;;16.90;13.67;;;;;;;11.75;88.10;101853.91;5029767;28;20214;-82